Time;durP1;ratioP1;P1;durP2;ratioP2;P2;SDS_P1;SDS_P2;PMS_P1;PMS_P2;Temp;Humidity;BMP_temperature;BMP_pressure;BME280_temperature;BME280_humidity;BME280_pressure;Samples;Min_cycle;Max_cycle;Signal;HPM_P1;HPM_P2
2023/02/23 00:00:56;;;;;;;;;;;;;;;25.95;37.32;93909.22;4914041;29;7031;-65
2023/02/23 00:03:49;;;;;;;;;;;;;;;25.97;37.63;93904.69;4900309;29;7324;-65
2023/02/23 00:06:31;;;;;;;;;;;;;;;25.99;37.84;93901.44;4900582;29;9350;-65
2023/02/23 00:09:21;;;;;;;;;;;;;;;25.97;37.72;93904.69;4958591;28;8398;-65
2023/02/23 00:11:51;;;;;;;;;;;;;;;25.99;38.02;93901.44;4966993;28;7036;-65
2023/02/23 00:14:19;;;;;;;;;;;;;;;26.00;37.73;93906.41;4948270;28;9261;-65
2023/02/23 00:16:56;;;;;;;;;;;;;;;25.99;37.25;93901.44;4937363;28;7404;-65
2023/02/23 00:19:25;;;;;;;;;;;;;;;25.99;37.90;93907.66;4956636;28;7120;-65
2023/02/23 00:21:57;;;;;;;;;;;;;;;25.99;37.92;93904.19;5003590;28;7183;-65
2023/02/23 00:24:25;;;;;;;;;;;;;;;25.99;38.09;93904.91;5012755;28;9533;-65
2023/02/23 00:26:52;;;;;;;;;;;;;;;25.98;37.43;93903.44;5018791;28;9036;-65
2023/02/23 00:29:21;;;;;;;;;;;;;;;25.97;37.79;93901.94;5028269;28;7392;-65
2023/02/23 00:31:52;;;;;;;;;;;;;;;25.98;37.89;93906.19;5018684;28;7049;-65
2023/02/23 00:34:22;;;;;;;;;;;;;;;25.96;38.18;93905.97;5024330;28;9466;-65
2023/02/23 00:36:55;;;;;;;;;;;;;;;25.97;38.07;93907.44;5007960;28;7266;-65
2023/02/23 00:39:28;;;;;;;;;;;;;;;25.94;37.06;93900.25;5028113;28;7274;-65
2023/02/23 00:42:02;;;;;;;;;;;;;;;25.95;37.39;93901.72;5024386;28;8941;-65
2023/02/23 00:44:31;;;;;;;;;;;;;;;25.95;37.22;93912.00;5018902;28;8701;-65
2023/02/23 00:46:57;;;;;;;;;;;;;;;25.92;37.16;93902.78;5036013;28;9487;-65
2023/02/23 00:49:35;;;;;;;;;;;;;;;25.95;37.83;93909.97;5019155;28;7322;-65
2023/02/23 00:52:13;;;;;;;;;;;;;;;25.94;37.36;93905.00;5007082;28;9162;-65
2023/02/23 00:54:40;;;;;;;;;;;;;;;25.93;38.03;93896.00;5014148;28;7679;-65
2023/02/23 00:57:09;;;;;;;;;;;;;;;25.94;37.54;93902.25;5013544;28;9060;-65
2023/02/23 00:59:35;;;;;;;;;;;;;;;25.93;38.06;93896.00;5027425;28;7048;-65
2023/02/23 01:02:01;;;;;;;;;;;;;;;25.93;37.41;93898.75;5015090;28;8836;-65
2023/02/23 01:04:27;;;;;;;;;;;;;;;25.89;37.32;93887.28;5012043;28;9089;-65
2023/02/23 01:07:29;;;;;;;;;;;;;;;25.91;37.51;93893.00;5045768;28;7052;-65
2023/02/23 01:10:18;;;;;;;;;;;;;;;25.89;37.64;93892.81;5022636;28;7050;-65
2023/02/23 01:12:49;;;;;;;;;;;;;;;25.90;38.19;93890.78;5014840;28;7007;-65
2023/02/23 01:15:33;;;;;;;;;;;;;;;25.90;37.67;93883.25;5025700;28;7027;-65
2023/02/23 01:17:59;;;;;;;;;;;;;;;25.91;38.22;93884.75;5020828;28;9063;-65
2023/02/23 01:20:35;;;;;;;;;;;;;;;25.91;37.80;93881.25;5028492;28;7217;-65
2023/02/23 01:23:21;;;;;;;;;;;;;;;25.88;37.74;93879.56;5030737;28;7283;-65
2023/02/23 01:25:48;;;;;;;;;;;;;;;25.91;37.24;93887.50;5030642;28;9264;-65
2023/02/23 01:28:24;;;;;;;;;;;;;;;25.90;37.39;93886.00;5005263;28;9107;-65
2023/02/23 01:30:55;;;;;;;;;;;;;;;25.89;37.05;93890.03;5025361;28;7351;-65
2023/02/23 01:33:22;;;;;;;;;;;;;;;25.91;37.32;93887.50;5030051;28;7495;-65
2023/02/23 01:35:59;;;;;;;;;;;;;;;25.90;38.13;93877.75;5021513;28;7496;-65
2023/02/23 01:38:32;;;;;;;;;;;;;;;25.90;37.70;93886.00;5027281;28;9229;-65
2023/02/23 01:41:03;;;;;;;;;;;;;;;25.87;37.95;93878.81;5037164;28;8806;-65
2023/02/23 01:43:29;;;;;;;;;;;;;;;25.88;38.11;93877.53;5025999;28;8219;-65
2023/02/23 01:45:59;;;;;;;;;;;;;;;25.88;37.63;93871.28;5026837;28;8958;-65
2023/02/23 01:48:38;;;;;;;;;;;;;;;25.87;37.43;93867.78;5027390;28;7257;-63
2023/02/23 01:51:17;;;;;;;;;;;;;;;25.89;38.20;93872.75;5025090;28;8762;-62
2023/02/23 01:54:18;;;;;;;;;;;;;;;25.88;37.24;93869.25;5011603;28;9178;-63
2023/02/23 01:56:56;;;;;;;;;;;;;;;25.90;37.45;93863.97;5013007;28;7251;-62
2023/02/23 01:59:35;;;;;;;;;;;;;;;25.87;37.34;93861.53;5046273;28;7112;-62
2023/02/23 02:02:06;;;;;;;;;;;;;;;25.88;37.76;93863.03;5029590;28;9058;-62
2023/02/23 02:04:43;;;;;;;;;;;;;;;25.89;38.12;93862.50;5029238;28;6979;-63
2023/02/23 02:07:35;;;;;;;;;;;;;;;25.91;37.33;93853.69;5005347;28;7390;-62
2023/02/23 02:10:54;;;;;;;;;;;;;;;25.90;37.84;93854.97;5046384;28;7266;-63
2023/02/23 02:13:58;;;;;;;;;;;;;;;25.91;38.05;93859.19;4968998;28;7041;-63
2023/02/23 02:16:49;;;;;;;;;;;;;;;25.89;37.13;93851.47;4932048;29;8261;-63
2023/02/23 02:19:48;;;;;;;;;;;;;;;25.89;37.65;93848.72;4918913;29;9019;-62
2023/02/23 02:26:05;;;;;;;;;;;;;;;25.87;37.34;93847.75;4931005;29;8780;-63
2023/02/23 02:29:02;;;;;;;;;;;;;;;25.87;37.71;93845.75;4915830;29;7205;-62
2023/02/23 02:32:15;;;;;;;;;;;;;;;25.87;37.54;93845.75;4918469;29;9399;-62
2023/02/23 02:35:23;;;;;;;;;;;;;;;25.88;37.56;93844.47;4930767;29;7056;-62
2023/02/23 02:38:10;;;;;;;;;;;;;;;25.86;37.35;93843.53;4900383;29;6991;-63
2023/02/23 02:40:55;;;;;;;;;;;;;;;25.86;37.98;93841.50;4925588;29;8728;-62
2023/02/23 02:43:43;;;;;;;;;;;;;;;25.86;38.04;93838.75;4928343;29;7621;-63
2023/02/23 02:46:52;;;;;;;;;;;;;;;25.85;38.25;93842.03;4931983;29;9094;-63
2023/02/23 02:53:39;;;;;;;;;;;;;;;25.87;37.18;93845.75;4952444;28;6804;-62
2023/02/23 02:56:21;;;;;;;;;;;;;;;25.84;37.60;93840.53;4950757;28;9097;-62
2023/02/23 02:58:58;;;;;;;;;;;;;;;25.84;37.55;93843.28;4969063;28;9244;-62
2023/02/23 04:18:24;;;;;;;;;;;;;;;25.80;37.70;93829.81;5016380;28;9082;-62
2023/02/23 04:20:56;;;;;;;;;;;;;;;25.79;38.54;93833.88;5020260;28;7271;-63
2023/02/23 04:23:31;;;;;;;;;;;;;;;25.80;37.73;93829.81;5020440;28;7037;-62
2023/02/23 04:25:59;;;;;;;;;;;;;;;25.80;38.26;93829.81;5018903;28;9150;-62
2023/02/23 04:28:28;;;;;;;;;;;;;;;25.79;37.69;93833.13;5012731;28;9173;-63
2023/02/23 04:30:53;;;;;;;;;;;;;;;25.79;38.09;93836.63;5022422;28;9095;-62
2023/02/23 04:33:23;;;;;;;;;;;;;;;25.81;38.31;93836.09;5029061;28;7445;-63
2023/02/23 04:35:54;;;;;;;;;;;;;;;25.80;37.31;93829.81;5016247;28;7356;-63
2023/02/23 04:38:23;;;;;;;;;;;;;;;25.79;37.83;93831.09;5014286;28;8220;-63
2023/02/23 04:40:51;;;;;;;;;;;;;;;25.79;37.55;93824.84;5021472;28;7034;-62
2023/02/23 04:43:19;;;;;;;;;;;;;;;25.79;37.81;93822.09;5018972;28;7128;-63
2023/02/23 04:45:45;;;;;;;;;;;;;;;25.78;37.97;93828.84;5028303;28;7231;-62
2023/02/23 04:48:15;;;;;;;;;;;;;;;25.78;38.34;93826.84;5016963;28;7271;-63
2023/02/23 04:50:41;;;;;;;;;;;;;;;25.79;37.61;93825.59;5013870;28;9106;-63
2023/02/23 04:53:33;;;;;;;;;;;;;;;25.80;37.93;93823.56;5023192;28;7024;-63
2023/02/23 04:56:00;;;;;;;;;;;;;;;25.79;37.80;93828.34;4939133;28;7365;-63
2023/02/23 05:02:16;;;;;;;;;;;;;;;25.78;37.73;93824.09;4879026;29;8483;-62
2023/02/23 05:04:52;;;;;;;;;;;;;;;25.77;38.29;93828.13;4863669;29;7967;-63
2023/02/23 05:07:31;;;;;;;;;;;;;;;25.75;38.24;93825.13;4860501;29;9362;-62
2023/02/23 05:10:11;;;;;;;;;;;;;;;25.74;37.67;93825.69;4878137;29;8052;-63
2023/02/23 05:13:09;;;;;;;;;;;;;;;25.76;38.34;93826.63;4879130;29;6978;-63
2023/02/23 05:19:14;;;;;;;;;;;;;;;25.74;38.38;93820.91;4879117;29;9038;-62
2023/02/23 05:21:58;;;;;;;;;;;;;;;25.76;37.56;93817.63;4863343;29;9822;-63
2023/02/23 05:24:35;;;;;;;;;;;;;;;25.75;38.29;93822.38;4878648;29;7169;-62
2023/02/23 05:27:13;;;;;;;;;;;;;;;25.75;37.88;93814.13;4863006;29;7370;-65
2023/02/23 05:29:39;;;;;;;;;;;;;;;25.73;38.15;93819.41;4863142;29;7042;-65
2023/02/23 05:32:16;;;;;;;;;;;;;;;25.74;37.49;93818.16;4866346;29;7004;-65
2023/02/23 05:34:43;;;;;;;;;;;;;;;25.76;37.91;93823.13;4916163;29;9723;-65
2023/02/23 05:37:14;;;;;;;;;;;;;;;25.76;37.83;93814.88;4897798;29;8973;-65
2023/02/23 05:39:40;;;;;;;;;;;;;;;25.76;38.02;93817.63;4954598;28;7382;-65
2023/02/23 05:42:06;;;;;;;;;;;;;;;25.75;38.34;93819.63;4969958;28;7373;-65
2023/02/23 05:44:33;;;;;;;;;;;;;;;25.74;37.74;93820.91;4966090;28;9086;-65
2023/02/23 05:46:59;;;;;;;;;;;;;;;25.74;38.44;93820.16;4965450;28;9041;-65
2023/02/23 05:49:25;;;;;;;;;;;;;;;25.75;37.76;93821.66;4970701;28;9097;-65
2023/02/23 05:51:51;;;;;;;;;;;;;;;25.77;37.75;93828.13;4996646;28;9134;-65
2023/02/23 05:54:48;;;;;;;;;;;;;;;25.75;37.58;93824.41;5016480;28;7252;-65
2023/02/23 05:57:14;;;;;;;;;;;;;;;25.74;37.46;93826.44;5038468;28;6982;-65
2023/02/23 06:00:25;;;;;;;;;;;;;;;25.76;37.60;93825.88;5028791;28;7245;-65
2023/02/23 06:03:02;;;;;;;;;;;;;;;25.73;38.40;93821.44;5029949;28;7318;-65
2023/02/23 06:05:40;;;;;;;;;;;;;;;25.72;38.01;93817.19;5029968;28;7515;-65
2023/02/23 06:08:22;;;;;;;;;;;;;;;25.72;37.60;93826.22;5021261;28;7104;-65
2023/02/23 06:10:51;;;;;;;;;;;;;;;25.73;38.19;93824.94;5019363;28;9091;-65
2023/02/23 06:13:20;;;;;;;;;;;;;;;25.71;38.05;93827.47;5014273;28;9655;-65
2023/02/23 06:16:11;;;;;;;;;;;;;;;25.72;38.39;93825.47;5045461;28;9461;-65
2023/02/23 06:18:39;;;;;;;;;;;;;;;25.72;38.17;93823.44;5046691;28;9075;-65
2023/02/23 06:21:09;;;;;;;;;;;;;;;25.70;37.45;93825.25;5019772;28;7237;-65
2023/02/23 06:23:37;;;;;;;;;;;;;;;25.71;37.90;93835.72;5014009;28;9488;-65
2023/02/23 06:26:23;;;;;;;;;;;;;;;25.73;37.35;93821.44;5014074;28;7283;-65
2023/02/23 06:28:51;;;;;;;;;;;;;;;25.71;38.41;93826.75;5045962;28;7316;-65
2023/02/23 06:31:19;;;;;;;;;;;;;;;25.73;38.13;93827.69;5019582;28;9750;-65
2023/02/23 06:34:03;;;;;;;;;;;;;;;25.71;37.74;93826.75;5045635;28;8672;-65
2023/02/23 06:36:36;;;;;;;;;;;;;;;25.71;37.33;93830.22;5028904;28;7116;-65
2023/02/23 06:39:11;;;;;;;;;;;;;;;25.72;38.02;93833.72;5026063;28;9359;-65
2023/02/23 06:41:55;;;;;;;;;;;;;;;25.70;38.41;93828.75;5029533;28;9080;-65
2023/02/23 06:44:38;;;;;;;;;;;;;;;25.70;37.40;93836.25;5017713;28;9609;-65
2023/02/23 06:47:25;;;;;;;;;;;;;;;25.71;38.53;93843.25;5019193;28;8234;-65
2023/02/23 06:50:05;;;;;;;;;;;;;;;25.68;38.19;93842.31;5028448;28;7030;-65
2023/02/23 06:52:39;;;;;;;;;;;;;;;25.71;38.40;93837.75;5028659;28;7128;-65
2023/02/23 06:55:08;;;;;;;;;;;;;;;25.73;37.52;93841.44;5028919;28;9240;-65
2023/02/23 06:57:34;;;;;;;;;;;;;;;25.72;37.77;93844.72;5009087;28;9373;-64
2023/02/23 07:00:09;;;;;;;;;;;;;;;25.70;37.93;93844.53;5017702;28;8635;-65
2023/02/23 07:02:36;;;;;;;;;;;;;;;25.70;37.82;93850.78;5013538;28;7250;-65
2023/02/23 07:05:05;;;;;;;;;;;;;;;25.66;38.12;93846.84;5025335;28;6999;-65
2023/02/23 07:07:33;;;;;;;;;;;;;;;25.68;38.57;93856.06;5009874;28;9065;-65
2023/02/23 07:10:05;;;;;;;;;;;;;;;25.69;37.42;93857.53;5022309;28;8965;-65
2023/02/23 07:12:35;;;;;;;;;;;;;;;25.68;38.50;93858.06;5016732;28;7162;-65
2023/02/23 07:15:06;;;;;;;;;;;;;;;25.68;37.55;93855.31;5033045;28;8988;-65
2023/02/23 07:17:47;;;;;;;;;;;;;;;25.67;37.84;93859.31;5032697;28;7948;-65
2023/02/23 07:20:32;;;;;;;;;;;;;;;25.68;38.48;93867.09;5008469;28;7178;-65
2023/02/23 07:23:56;;;;;;;;;;;;;;;25.68;37.54;93867.09;5049316;28;9398;-65
2023/02/23 07:26:33;;;;;;;;;;;;;;;25.65;37.62;93857.09;5028229;28;8961;-65
2023/02/23 07:29:11;;;;;;;;;;;;;;;25.68;37.78;93861.59;5015993;28;7140;-65
2023/02/23 07:32:03;;;;;;;;;;;;;;;25.68;38.49;93864.34;5015957;28;7293;-65
2023/02/23 07:34:31;;;;;;;;;;;;;;;25.67;37.39;93871.09;4957699;28;9434;-65
2023/02/23 07:37:00;;;;;;;;;;;;;;;25.68;37.70;93867.09;4945804;28;7281;-65
2023/02/23 07:39:47;;;;;;;;;;;;;;;25.69;38.38;93870.56;4949492;28;7326;-65
2023/02/23 07:42:16;;;;;;;;;;;;;;;25.70;38.16;93875.56;4968349;28;7457;-65
2023/02/23 07:45:11;;;;;;;;;;;;;;;25.68;38.55;93872.59;4941202;28;9178;-65
2023/02/23 07:47:39;;;;;;;;;;;;;;;25.65;38.30;93870.88;4956548;28;8997;-65
2023/02/23 07:50:08;;;;;;;;;;;;;;;25.67;38.57;93873.84;4940658;28;7343;-65
2023/02/23 07:52:46;;;;;;;;;;;;;;;25.64;38.50;93880.41;4930388;28;7498;-65
2023/02/23 07:55:25;;;;;;;;;;;;;;;25.66;38.41;93869.63;4940252;28;8903;-65
2023/02/23 07:57:52;;;;;;;;;;;;;;;25.64;37.78;93872.16;4955607;28;9208;-65
2023/02/23 08:00:49;;;;;;;;;;;;;;;25.65;37.65;93873.63;4955762;28;7061;-65
2023/02/23 08:03:15;;;;;;;;;;;;;;;25.65;38.67;93872.88;4888907;29;7209;-65
2023/02/23 08:06:27;;;;;;;;;;;;;;;25.66;38.18;93880.66;4865884;29;7023;-65
2023/02/23 08:09:13;;;;;;;;;;;;;;;25.65;37.70;93889.41;4843289;29;7284;-65
2023/02/23 08:11:39;;;;;;;;;;;;;;;25.65;38.15;93889.41;4861941;29;9089;-65
2023/02/23 08:14:09;;;;;;;;;;;;;;;25.64;37.93;93885.94;4859807;29;7114;-65
2023/02/23 08:16:35;;;;;;;;;;;;;;;25.62;38.47;93885.69;4841568;29;7217;-65
2023/02/23 08:19:37;;;;;;;;;;;;;;;25.65;38.70;93886.66;4859324;29;7520;-65
2023/02/23 08:22:12;;;;;;;;;;;;;;;25.65;38.34;93894.91;4824604;29;9323;-65
2023/02/23 08:25:26;;;;;;;;;;;;;;;25.65;37.71;93892.91;4827483;29;7287;-65
2023/02/23 08:27:54;;;;;;;;;;;;;;;25.63;38.00;93889.19;4857832;29;9084;-65
2023/02/23 08:30:23;;;;;;;;;;;;;;;25.64;38.22;93888.69;4841285;29;9253;-65
2023/02/23 08:32:49;;;;;;;;;;;;;;;25.62;38.26;93884.97;4855746;29;7227;-65
2023/02/23 08:35:18;;;;;;;;;;;;;;;25.63;37.90;93880.94;4839617;29;9165;-65
2023/02/23 08:37:44;;;;;;;;;;;;;;;25.65;38.56;93881.91;4839208;29;9266;-65
2023/02/23 08:40:14;;;;;;;;;;;;;;;25.66;38.09;93880.66;4881937;29;7026;-65
2023/02/23 08:42:43;;;;;;;;;;;;;;;25.67;38.04;93876.59;4889228;29;8482;-65
2023/02/23 08:45:10;;;;;;;;;;;;;;;25.66;38.64;93883.41;4945030;28;7285;-65
2023/02/23 08:47:38;;;;;;;;;;;;;;;25.65;37.92;93881.91;4972580;28;9063;-65
2023/02/23 08:50:15;;;;;;;;;;;;;;;25.65;38.15;93881.16;4981778;28;8691;-63
2023/02/23 08:53:06;;;;;;;;;;;;;;;25.66;38.14;93885.41;4957541;28;7450;-63
2023/02/23 08:55:34;;;;;;;;;;;;;;;25.65;38.60;93881.16;5002207;28;8912;-63
2023/02/23 08:58:00;;;;;;;;;;;;;;;25.64;38.03;93883.19;5038197;28;7033;-62
2023/02/23 09:00:28;;;;;;;;;;;;;;;25.64;37.85;93888.69;5013837;28;7153;-63
2023/02/23 09:02:54;;;;;;;;;;;;;;;25.64;38.31;93887.94;5020147;28;9315;-63
2023/02/23 09:05:24;;;;;;;;;;;;;;;25.64;38.47;93894.19;5018657;28;7437;-63
2023/02/23 09:07:50;;;;;;;;;;;;;;;25.63;38.57;93898.19;5022645;28;9578;-63
2023/02/23 09:10:19;;;;;;;;;;;;;;;25.61;38.35;93886.97;5021834;28;7042;-63
2023/02/23 09:12:47;;;;;;;;;;;;;;;25.64;38.39;93894.19;5002389;28;7249;-63
2023/02/23 09:15:16;;;;;;;;;;;;;;;25.65;38.27;93890.16;5042936;28;7255;-62
2023/02/23 09:17:46;;;;;;;;;;;;;;;25.64;38.17;93893.44;5013738;28;7278;-65
2023/02/23 09:20:16;;;;;;;;;;;;;;;25.64;38.45;93893.44;5030409;28;7106;-65
2023/02/23 09:22:50;;;;;;;;;;;;;;;25.64;37.75;93893.44;5008331;28;8735;-65
2023/02/23 09:25:21;;;;;;;;;;;;;;;25.64;38.38;93899.69;5020624;28;7097;-65
2023/02/23 09:27:55;;;;;;;;;;;;;;;25.64;38.07;93888.69;5018420;28;9032;-65
2023/02/23 09:30:22;;;;;;;;;;;;;;;25.66;37.80;93899.16;5005164;28;7071;-65
2023/02/23 09:32:50;;;;;;;;;;;;;;;25.67;37.86;93903.41;5022546;28;7024;-65
2023/02/23 09:35:19;;;;;;;;;;;;;;;25.64;38.21;93904.47;5025872;28;7253;-66
2023/02/23 09:37:53;;;;;;;;;;;;;;;25.67;37.76;93897.88;5017932;28;9040;-65
2023/02/23 09:40:32;;;;;;;;;;;;;;;25.67;37.97;93893.13;5022008;28;8914;-66
2023/02/23 09:43:13;;;;;;;;;;;;;;;25.67;38.57;93892.38;5025273;28;7307;-66
2023/02/23 09:46:28;;;;;;;;;;;;;;;25.70;38.49;93892.09;5018313;28;8993;-66
2023/02/23 09:49:04;;;;;;;;;;;;;;;25.70;37.92;93892.09;4979903;28;7072;-66
2023/02/23 09:51:41;;;;;;;;;;;;;;;25.70;38.11;93891.34;4975485;28;8679;-65
2023/02/23 09:54:15;;;;;;;;;;;;;;;25.72;37.76;93888.81;4965093;28;9084;-65
2023/02/23 09:56:51;;;;;;;;;;;;;;;25.72;37.91;93878.53;4980056;28;7047;-65
2023/02/23 09:59:22;;;;;;;;;;;;;;;25.74;38.45;93889.78;4964334;28;8545;-65
2023/02/23 10:01:50;;;;;;;;;;;;;;;25.75;37.68;93885.75;4988002;28;7337;-65
2023/02/23 10:04:19;;;;;;;;;;;;;;;25.76;37.58;93884.47;4975486;28;9103;-65
2023/02/23 10:06:56;;;;;;;;;;;;;;;25.77;37.72;93879.72;4994785;28;8834;-65
2023/02/23 10:09:44;;;;;;;;;;;;;;;25.77;38.36;93882.47;5000647;28;9123;-65
2023/02/23 10:12:29;;;;;;;;;;;;;;;25.76;38.07;93881.72;4981902;28;6921;-65
2023/02/23 10:15:06;;;;;;;;;;;;;;;25.76;38.47;93878.97;4976401;28;9118;-65
2023/02/23 10:17:39;;;;;;;;;;;;;;;25.76;37.96;93864.44;4986888;28;7550;-65
2023/02/23 10:21:03;;;;;;;;;;;;;;;25.75;37.83;93877.47;4999643;28;7039;-65
2023/02/23 10:23:41;;;;;;;;;;;;;;;25.74;38.15;93875.25;5006727;28;7315;-66
2023/02/23 10:26:25;;;;;;;;;;;;;;;25.75;37.92;93871.97;5018148;28;7079;-66
2023/02/23 10:29:36;;;;;;;;;;;;;;;25.76;37.88;93867.97;5014341;28;9373;-66
2023/02/23 10:32:49;;;;;;;;;;;;;;;25.78;38.59;93870.19;5029506;28;7940;-66
2023/02/23 10:35:32;;;;;;;;;;;;;;;25.73;38.56;93863.47;5020105;28;7255;-66
2023/02/23 10:38:15;;;;;;;;;;;;;;;25.74;37.91;93867.00;5014425;28;9170;-65
2023/02/23 10:40:56;;;;;;;;;;;;;;;25.74;37.93;93865.00;5029453;28;9085;-65
2023/02/23 10:43:29;;;;;;;;;;;;;;;25.79;37.89;93861.41;5045949;28;9036;-66
2023/02/23 10:46:22;;;;;;;;;;;;;;;25.81;37.78;93864.38;5012261;28;7124;-65
2023/02/23 10:48:54;;;;;;;;;;;;;;;25.83;37.90;93861.09;5029068;28;9506;-65
2023/02/23 10:51:32;;;;;;;;;;;;;;;25.86;38.26;93858.03;5002312;28;7438;-66
2023/02/23 10:54:00;;;;;;;;;;;;;;;25.86;37.48;93866.28;5017422;28;7298;-65
2023/02/23 10:56:33;;;;;;;;;;;;;;;25.87;38.11;93861.53;5008400;28;7333;-65
2023/02/23 10:59:01;;;;;;;;;;;;;;;25.86;38.13;93855.25;5019055;28;9101;-65
2023/02/23 11:01:43;;;;;;;;;;;;;;;25.88;38.43;93860.28;5042056;28;7034;-65
2023/02/23 11:04:28;;;;;;;;;;;;;;;25.90;37.58;93860.50;5005309;28;9083;-65
2023/02/23 11:07:15;;;;;;;;;;;;;;;25.89;37.74;93859.00;5024374;28;9381;-65
2023/02/23 11:09:41;;;;;;;;;;;;;;;25.88;37.71;93852.72;5016985;28;9434;-65
2023/02/23 11:12:42;;;;;;;;;;;;;;;25.88;38.48;93852.00;5013663;28;7083;-65
2023/02/23 11:15:23;;;;;;;;;;;;;;;25.88;38.31;93846.50;4993952;28;7621;-66
2023/02/23 11:18:00;;;;;;;;;;;;;;;25.88;38.04;93847.22;4975422;28;9479;-65
2023/02/23 11:20:44;;;;;;;;;;;;;;;25.89;38.12;93848.72;4980514;28;7065;-65
2023/02/23 11:23:39;;;;;;;;;;;;;;;25.91;38.66;93840.66;4975280;28;9527;-65
2023/02/23 11:26:31;;;;;;;;;;;;;;;25.92;38.51;93841.41;4970156;28;7231;-66
2023/02/23 11:29:09;;;;;;;;;;;;;;;25.89;38.29;93832.19;4960924;28;7453;-65
2023/02/23 11:31:36;;;;;;;;;;;;;;;25.89;38.70;93834.19;4943613;28;7288;-65
2023/02/23 11:34:04;;;;;;;;;;;;;;;25.91;37.80;93832.41;4968799;28;7271;-65
2023/02/23 11:36:36;;;;;;;;;;;;;;;25.89;38.49;93823.91;4952181;28;8153;-65
2023/02/23 11:39:23;;;;;;;;;;;;;;;25.91;38.27;93820.63;4950296;28;9423;-65
2023/02/23 11:42:15;;;;;;;;;;;;;;;25.88;38.64;93819.66;4970113;28;7255;-65
2023/02/23 11:44:41;;;;;;;;;;;;;;;25.89;37.88;93820.41;4969007;28;7934;-65
2023/02/23 11:47:19;;;;;;;;;;;;;;;25.89;37.98;93821.16;4952128;28;7219;-65
2023/02/23 11:49:51;;;;;;;;;;;;;;;25.92;38.06;93824.88;4967941;28;9319;-65
2023/02/23 11:52:27;;;;;;;;;;;;;;;25.91;38.25;93812.38;4968433;28;7278;-65
2023/02/23 11:55:00;;;;;;;;;;;;;;;25.93;37.88;93816.09;4969411;28;7313;-65
2023/02/23 11:57:30;;;;;;;;;;;;;;;25.95;38.27;93808.03;4984373;28;9002;-65
2023/02/23 12:00:03;;;;;;;;;;;;;;;25.94;38.20;93803.81;4971973;28;9439;-65
2023/02/23 12:02:31;;;;;;;;;;;;;;;25.94;37.86;93806.56;4985315;28;7297;-65
2023/02/23 12:05:00;;;;;;;;;;;;;;;25.97;38.29;93799.97;5013393;28;7557;-65
2023/02/23 12:07:48;;;;;;;;;;;;;;;25.96;37.85;93795.75;5028207;28;7356;-65
2023/02/23 12:10:25;;;;;;;;;;;;;;;25.97;37.72;93794.47;5045760;28;8985;-65
2023/02/23 12:13:23;;;;;;;;;;;;;;;25.99;38.13;93797.44;5045771;28;9063;-65
2023/02/23 12:16:01;;;;;;;;;;;;;;;25.99;38.64;93799.47;4955160;28;7213;-65
2023/02/23 12:18:36;;;;;;;;;;;;;;;26.01;38.64;93792.13;4961824;28;7085;-65
2023/02/23 12:21:39;;;;;;;;;;;;;;;26.01;37.75;93788.66;4955164;28;9183;-65
2023/02/23 12:24:44;;;;;;;;;;;;;;;26.03;38.78;93788.88;4962353;28;9042;-65
2023/02/23 12:27:21;;;;;;;;;;;;;;;26.03;38.14;93786.84;4931372;29;7357;-65
2023/02/23 12:29:47;;;;;;;;;;;;;;;26.06;38.24;93779.53;4933405;29;7134;-65
2023/02/23 12:32:56;;;;;;;;;;;;;;;26.06;38.60;93788.56;4917462;29;7272;-65
2023/02/23 12:35:49;;;;;;;;;;;;;;;26.09;37.67;93778.50;4917525;29;9008;-65
2023/02/23 12:38:53;;;;;;;;;;;;;;;26.08;37.73;93788.00;4917120;29;7256;-65
2023/02/23 12:41:46;;;;;;;;;;;;;;;26.10;38.08;93774.47;4917022;29;9470;-65
2023/02/23 12:44:41;;;;;;;;;;;;;;;26.08;38.57;93777.75;4916738;29;9476;-66
2023/02/23 12:51:17;;;;;;;;;;;;;;;26.09;38.30;93779.25;4878466;29;9442;-66
2023/02/23 12:53:44;;;;;;;;;;;;;;;26.10;38.63;93768.97;4861112;29;8079;-65
2023/02/23 12:56:41;;;;;;;;;;;;;;;26.13;38.32;93776.94;4862414;29;9064;-66
2023/02/23 12:59:13;;;;;;;;;;;;;;;26.15;38.87;93774.38;4859608;29;7239;-65
2023/02/23 13:01:59;;;;;;;;;;;;;;;26.17;38.07;93777.34;4853990;29;7263;-65
2023/02/23 13:04:34;;;;;;;;;;;;;;;26.19;37.93;93778.84;4882004;29;9358;-66
2023/02/23 13:07:21;;;;;;;;;;;;;;;26.20;38.05;93772.06;4893473;29;7677;-65
2023/02/23 13:10:28;;;;;;;;;;;;;;;26.22;38.63;93777.78;4912792;29;7343;-65
2023/02/23 13:13:37;;;;;;;;;;;;;;;26.25;38.72;93771.22;4933935;29;8736;-66
2023/02/23 13:16:43;;;;;;;;;;;;;;;26.26;38.09;93769.94;4935271;29;9636;-66
2023/02/23 13:19:21;;;;;;;;;;;;;;;26.29;38.11;93771.63;4949394;28;9033;-66
2023/02/23 13:22:08;;;;;;;;;;;;;;;26.31;38.12;93763.56;4922654;29;9643;-66
2023/02/23 13:24:39;;;;;;;;;;;;;;;26.34;38.50;93770.78;4928648;29;7138;-66
2023/02/23 13:27:18;;;;;;;;;;;;;;;26.38;38.58;93768.47;5012900;28;7025;-67
2023/02/23 13:29:48;;;;;;;;;;;;;;;26.40;37.89;93769.41;5043705;28;7477;-66
2023/02/23 13:32:23;;;;;;;;;;;;;;;26.41;38.08;93770.13;5012737;28;7179;-67
2023/02/23 13:34:56;;;;;;;;;;;;;;;26.44;38.66;93766.34;5027414;28;7152;-65
2023/02/23 13:37:36;;;;;;;;;;;;;;;26.46;38.01;93767.28;5024373;28;7271;-66
2023/02/23 13:40:19;;;;;;;;;;;;;;;26.49;38.16;93766.22;5043515;28;9522;-66
2023/02/23 13:43:08;;;;;;;;;;;;;;;26.53;38.52;93768.66;5043314;28;7081;-66
2023/02/23 13:45:50;;;;;;;;;;;;;;;26.57;38.25;93766.31;5011214;28;8024;-66
2023/02/23 13:49:00;;;;;;;;;;;;;;;26.58;37.97;93762.28;5016786;28;9033;-66
2023/02/23 13:51:50;;;;;;;;;;;;;;;26.59;38.38;93764.53;4953389;28;7120;-66
2023/02/23 13:54:18;;;;;;;;;;;;;;;26.60;37.71;93762.50;4960411;28;7343;-66
2023/02/23 13:56:48;;;;;;;;;;;;;;;26.64;37.21;93760.16;4955782;28;7212;-66
2023/02/23 13:59:17;;;;;;;;;;;;;;;26.68;37.36;93760.56;4950349;28;7333;-66
2023/02/23 14:01:48;;;;;;;;;;;;;;;26.67;37.63;93762.59;4950635;28;9435;-66
2023/02/23 14:04:26;;;;;;;;;;;;;;;26.71;37.92;93753.97;4960429;28;7831;-66
2023/02/23 14:07:17;;;;;;;;;;;;;;;26.73;37.51;93757.72;4953853;28;7078;-66
2023/02/23 14:09:54;;;;;;;;;;;;;;;26.77;37.89;93757.41;4954022;28;9420;-66
2023/02/23 14:12:33;;;;;;;;;;;;;;;26.78;37.44;93754.13;4956486;28;8419;-66
2023/02/23 14:15:26;;;;;;;;;;;;;;;26.81;37.67;93755.06;4954255;28;8816;-66
2023/02/23 14:18:19;;;;;;;;;;;;;;;26.82;37.74;93754.53;4944261;28;7112;-66
2023/02/23 14:21:03;;;;;;;;;;;;;;;26.86;37.62;93757.69;4958909;28;7479;-66
2023/02/23 14:23:47;;;;;;;;;;;;;;;26.88;37.75;93751.66;4935393;28;8981;-66
2023/02/23 14:26:34;;;;;;;;;;;;;;;26.89;37.75;93756.63;4960021;28;7214;-66
2023/02/23 14:29:30;;;;;;;;;;;;;;;26.92;37.31;93758.31;5001287;28;8993;-66
2023/02/23 14:32:23;;;;;;;;;;;;;;;26.94;37.43;93757.78;5012513;28;9327;-66
2023/02/23 14:34:55;;;;;;;;;;;;;;;26.96;37.54;93746.97;5020295;28;7019;-65
2023/02/23 14:37:29;;;;;;;;;;;;;;;27.00;37.47;93749.38;5009284;28;9070;-66
2023/02/23 14:40:16;;;;;;;;;;;;;;;27.00;37.24;93752.88;5010259;28;7928;-65
2023/02/23 14:43:02;;;;;;;;;;;;;;;27.02;37.63;93744.81;5014091;28;9342;-66
2023/02/23 14:45:37;;;;;;;;;;;;;;;27.04;37.47;93747.03;5028479;28;7298;-66
2023/02/23 14:48:17;;;;;;;;;;;;;;;27.05;37.16;93743.75;5028713;28;6856;-66
2023/02/23 14:50:43;;;;;;;;;;;;;;;27.07;37.70;93741.19;5027580;28;7359;-65
2023/02/23 14:53:24;;;;;;;;;;;;;;;27.05;37.21;93748.53;5044820;28;7538;-65
2023/02/23 14:55:51;;;;;;;;;;;;;;;27.03;37.17;93745.56;5022598;28;8737;-66
2023/02/23 14:58:27;;;;;;;;;;;;;;;27.02;37.29;93742.06;5023419;28;7356;-65
2023/02/23 15:01:35;;;;;;;;;;;;;;;27.01;37.17;93748.88;5027815;28;9418;-66
2023/02/23 15:04:26;;;;;;;;;;;;;;;26.98;37.09;93749.94;4964026;28;7075;-66
2023/02/23 15:06:57;;;;;;;;;;;;;;;27.01;37.40;93746.09;4971497;28;9537;-66
2023/02/23 15:09:38;;;;;;;;;;;;;;;26.99;37.37;93740.34;4972306;28;7250;-66
2023/02/23 15:15:56;;;;;;;;;;;;;;;27.00;37.49;93741.84;4972953;28;6964;-66
2023/02/23 15:18:43;;;;;;;;;;;;;;;27.00;37.19;93747.38;4965184;28;9090;-66
2023/02/23 15:21:30;;;;;;;;;;;;;;;27.02;36.96;93744.06;4963158;28;7335;-63
2023/02/23 15:24:20;;;;;;;;;;;;;;;26.99;37.17;93740.34;4971924;28;7229;-63
2023/02/23 15:27:18;;;;;;;;;;;;;;;27.02;37.08;93741.31;4972344;28;9309;-63
2023/02/23 15:29:45;;;;;;;;;;;;;;;27.00;36.81;93738.34;4965765;28;7009;-63
2023/02/23 15:32:20;;;;;;;;;;;;;;;27.01;36.66;93737.06;5003229;28;7052;-63
2023/02/23 15:35:24;;;;;;;;;;;;;;;27.03;36.84;93729.75;4973917;28;7283;-63
2023/02/23 15:37:53;;;;;;;;;;;;;;;27.03;37.02;93729.75;4992083;28;6930;-63